PWSweather.com
Personal Weather Stations
Station Observations
KMILAPEE3
Lapeer Michigan, Lapeer, MI 48446

Lapeer MichiganLapeer, MI 48446

Lat: 43.057, Lon: -83.362

Elevation: 897

Station Type: Oregon Scientific WMR-968

Latest ConditionsUpdated 4:57:38 AM EDT Monday, Apr 27, 2015
Currently Today's Max Today's Min Today's Average
Temperature 40.6°F4.8°C 41.9°F5.5°C 35.4°F1.9°C 39.5°F4.2°C
Dew Point 27.0°F-2.8°C 27.1°F-2.7°C 14.2°F-9.9°C 21.4°F-5.9°C
Winds 10.2 mph 16.4 kmh 12.1 mph N19.5 kmh N - 5.3 mph 8.5 kmh
Wind Gusts 19.9 mph32.0 kmh 19.9 mph32.0 kmh - -
Humidity 58% 58% 41% 48%
Pressure 28.97 in981.0 mb 28.97 in981.0 mb 28.94 in980.0 mb -
Hour Temp Dew Point Humidity Winds Wind Gusts Pressure Precip Precip Rate Daily Precip Total
04:57 AM 40.6°F4.8°C 27.0°F-2.8°C 58% 10.2 mph 16.4 kmh 19.9 mph32.0 kmh 28.97 in981.0 mb 0.00 in0.0 mm 0.00 in0.0 mm 0.00 in0.0 mm
04:56 AM 40.6°F4.8°C 27.0°F-2.8°C 58% 10.6 mph N17.1 kmh N 19.9 mph32.0 kmh 28.97 in981.0 mb 0.00 in0.0 mm 0.00 in0.0 mm 0.00 in0.0 mm
04:54 AM 40.6°F4.8°C 27.1°F-2.7°C 58% 10.4 mph N16.7 kmh N 19.9 mph32.0 kmh 28.97 in981.0 mb 0.00 in0.0 mm 0.00 in0.0 mm 0.00 in0.0 mm
04:52 AM 40.6°F4.8°C 26.5°F-3.1°C 57% 11.4 mph N18.3 kmh N 19.9 mph32.0 kmh 28.97 in981.0 mb 0.00 in0.0 mm 0.00 in0.0 mm 0.00 in0.0 mm
04:51 AM 40.8°F4.9°C 26.7°F-2.9°C 57% 11.2 mph N18.0 kmh N 19.9 mph32.0 kmh 28.97 in981.0 mb 0.00 in0.0 mm 0.00 in0.0 mm 0.00 in0.0 mm
04:49 AM 40.8°F4.9°C 26.7°F-2.9°C 57% 10.0 mph 16.1 kmh 18.1 mph29.1 kmh 28.97 in981.0 mb 0.00 in0.0 mm 0.00 in0.0 mm 0.00 in0.0 mm
04:47 AM 41.0°F5.0°C 26.4°F-3.1°C 56% 7.6 mph N12.2 kmh N 18.1 mph29.1 kmh 28.97 in981.0 mb 0.00 in0.0 mm 0.00 in0.0 mm 0.00 in0.0 mm
04:45 AM 41.0°F5.0°C 26.4°F-3.1°C 56% 7.2 mph 11.6 kmh 18.1 mph29.1 kmh 28.97 in981.0 mb 0.00 in0.0 mm 0.00 in0.0 mm 0.00 in0.0 mm
04:44 AM 41.0°F5.0°C 26.4°F-3.1°C 56% 8.8 mph N14.2 kmh N 18.1 mph29.1 kmh 28.97 in981.0 mb 0.00 in0.0 mm 0.00 in0.0 mm 0.00 in0.0 mm
04:42 AM 41.0°F5.0°C 26.4°F-3.1°C 56% 8.9 mph N14.3 kmh N 18.1 mph29.1 kmh 28.97 in981.0 mb 0.00 in0.0 mm 0.00 in0.0 mm 0.00 in0.0 mm
04:41 AM 41.0°F5.0°C 26.4°F-3.1°C 56% 9.6 mph N15.4 kmh N 18.1 mph29.1 kmh 28.97 in981.0 mb 0.00 in0.0 mm 0.00 in0.0 mm 0.00 in0.0 mm
04:39 AM 41.2°F5.1°C 26.6°F-3.0°C 56% 12.1 mph N19.5 kmh N 17.6 mph28.3 kmh 28.97 in981.0 mb 0.00 in0.0 mm 0.00 in0.0 mm 0.00 in0.0 mm
04:37 AM 41.2°F5.1°C 26.6°F-3.0°C 56% 11.8 mph N19.0 kmh N 17.6 mph28.3 kmh 28.97 in981.0 mb 0.00 in0.0 mm 0.00 in0.0 mm 0.00 in0.0 mm
04:35 AM 41.2°F5.1°C 26.6°F-3.0°C 56% 9.0 mph N14.5 kmh N 15.1 mph24.3 kmh 28.97 in981.0 mb 0.00 in0.0 mm 0.00 in0.0 mm 0.00 in0.0 mm
04:34 AM 41.2°F5.1°C 26.1°F-3.3°C 55% 9.0 mph N14.5 kmh N 15.1 mph24.3 kmh 28.97 in981.0 mb 0.00 in0.0 mm 0.00 in0.0 mm 0.00 in0.0 mm
04:32 AM 41.2°F5.1°C 26.1°F-3.3°C 55% 9.0 mph N14.5 kmh N 15.1 mph24.3 kmh 28.97 in981.0 mb 0.00 in0.0 mm 0.00 in0.0 mm 0.00 in0.0 mm
04:30 AM 41.2°F5.1°C 26.1°F-3.3°C 55% 7.9 mph N12.7 kmh N 16.9 mph27.2 kmh 28.97 in981.0 mb 0.00 in0.0 mm 0.00 in0.0 mm 0.00 in0.0 mm
04:29 AM 41.4°F5.2°C 26.3°F-3.2°C 55% 8.9 mph N14.3 kmh N 17.6 mph28.3 kmh 28.97 in981.0 mb 0.00 in0.0 mm 0.00 in0.0 mm 0.00 in0.0 mm
04:27 AM 41.4°F5.2°C 26.8°F-2.9°C 56% 10.9 mph N17.5 kmh N 17.6 mph28.3 kmh 28.97 in981.0 mb 0.00 in0.0 mm 0.00 in0.0 mm 0.00 in0.0 mm
04:25 AM 41.4°F5.2°C 26.8°F-2.9°C 56% 9.0 mph N14.5 kmh N 17.6 mph28.3 kmh 28.97 in981.0 mb 0.00 in0.0 mm 0.00 in0.0 mm 0.00 in0.0 mm
04:24 AM 41.5°F5.3°C 26.4°F-3.1°C 55% 9.6 mph N15.4 kmh N 17.6 mph28.3 kmh 28.97 in981.0 mb 0.00 in0.0 mm 0.00 in0.0 mm 0.00 in0.0 mm
04:22 AM 41.5°F5.3°C 25.9°F-3.4°C 54% 9.7 mph N15.6 kmh N 17.6 mph28.3 kmh 28.97 in981.0 mb 0.00 in0.0 mm 0.00 in0.0 mm 0.00 in0.0 mm
04:20 AM 41.5°F5.3°C 25.9°F-3.4°C 54% 10.6 mph N17.1 kmh N 18.1 mph29.1 kmh 28.97 in981.0 mb 0.00 in0.0 mm 0.00 in0.0 mm 0.00 in0.0 mm
04:19 AM 41.5°F5.3°C 25.9°F-3.4°C 54% 7.5 mph N12.1 kmh N 18.1 mph29.1 kmh 28.97 in981.0 mb 0.00 in0.0 mm 0.00 in0.0 mm 0.00 in0.0 mm
04:17 AM 41.5°F5.3°C 25.9°F-3.4°C 54% 8.3 mph N13.4 kmh N 18.1 mph29.1 kmh 28.97 in981.0 mb 0.00 in0.0 mm 0.00 in0.0 mm 0.00 in0.0 mm
04:15 AM 41.7°F5.4°C 26.1°F-3.3°C 54% 9.5 mph NNE15.3 kmh NNE 18.1 mph29.1 kmh 28.97 in981.0 mb 0.00 in0.0 mm 0.00 in0.0 mm 0.00 in0.0 mm
04:14 AM 41.7°F5.4°C 26.6°F-3.0°C 55% 12.1 mph NNE19.5 kmh NNE 18.1 mph29.1 kmh 28.97 in981.0 mb 0.00 in0.0 mm 0.00 in0.0 mm 0.00 in0.0 mm
04:12 AM 41.7°F5.4°C 26.1°F-3.3°C 54% 11.4 mph N18.3 kmh N 18.1 mph29.1 kmh 28.97 in981.0 mb 0.00 in0.0 mm 0.00 in0.0 mm 0.00 in0.0 mm
04:10 AM 41.7°F5.4°C 25.5°F-3.6°C 52% 8.3 mph N13.4 kmh N 18.1 mph29.1 kmh 28.97 in981.0 mb 0.00 in0.0 mm 0.00 in0.0 mm 0.00 in0.0 mm
04:09 AM 41.7°F5.4°C 25.5°F-3.6°C 52% 7.4 mph N11.9 kmh N 15.1 mph24.3 kmh 28.97 in981.0 mb 0.00 in0.0 mm 0.00 in0.0 mm 0.00 in0.0 mm
04:07 AM 41.7°F5.4°C 25.5°F-3.6°C 52% 7.6 mph N12.2 kmh N 15.1 mph24.3 kmh 28.97 in981.0 mb 0.00 in0.0 mm 0.00 in0.0 mm 0.00 in0.0 mm
04:05 AM 41.7°F5.4°C 25.5°F-3.6°C 52% 9.3 mph N15.0 kmh N 15.1 mph24.3 kmh 28.97 in981.0 mb 0.00 in0.0 mm 0.00 in0.0 mm 0.00 in0.0 mm
04:04 AM 41.9°F5.5°C 25.7°F-3.5°C 52% 9.0 mph N14.5 kmh N 15.1 mph24.3 kmh 28.97 in981.0 mb 0.00 in0.0 mm 0.00 in0.0 mm 0.00 in0.0 mm
04:02 AM 41.9°F5.5°C 25.7°F-3.5°C 52% 8.1 mph 13.0 kmh 13.9 mph22.4 kmh 28.97 in981.0 mb 0.00 in0.0 mm 0.00 in0.0 mm 0.00 in0.0 mm
04:00 AM 41.9°F5.5°C 25.2°F-3.8°C 51% 7.3 mph N11.7 kmh N 13.9 mph22.4 kmh 28.97 in981.0 mb 0.00 in0.0 mm 0.00 in0.0 mm 0.00 in0.0 mm
03:58 AM 41.9°F5.5°C 25.2°F-3.8°C 51% 8.1 mph N13.0 kmh N 13.9 mph22.4 kmh 28.97 in981.0 mb 0.00 in0.0 mm 0.00 in0.0 mm 0.00 in0.0 mm
03:57 AM 41.9°F5.5°C 25.2°F-3.8°C 51% 6.2 mph 10.0 kmh 13.9 mph22.4 kmh 28.97 in981.0 mb 0.00 in0.0 mm 0.00 in0.0 mm 0.00 in0.0 mm
03:55 AM 41.9°F5.5°C 25.2°F-3.8°C 51% 4.7 mph N7.6 kmh N 13.9 mph22.4 kmh 28.97 in981.0 mb 0.00 in0.0 mm 0.00 in0.0 mm 0.00 in0.0 mm
03:53 AM 41.9°F5.5°C 25.2°F-3.8°C 51% 7.6 mph N12.2 kmh N 13.9 mph22.4 kmh 28.97 in981.0 mb 0.00 in0.0 mm 0.00 in0.0 mm 0.00 in0.0 mm
03:52 AM 41.7°F5.4°C 25.0°F-3.9°C 51% 7.2 mph N11.6 kmh N 13.9 mph22.4 kmh 28.97 in981.0 mb 0.00 in0.0 mm 0.00 in0.0 mm 0.00 in0.0 mm
03:50 AM 41.7°F5.4°C 25.0°F-3.9°C 51% 4.9 mph N7.9 kmh N 8.7 mph14.0 kmh 28.97 in981.0 mb 0.00 in0.0 mm 0.00 in0.0 mm 0.00 in0.0 mm
03:48 AM 41.7°F5.4°C 25.0°F-3.9°C 51% 5.2 mph N8.4 kmh N 8.7 mph14.0 kmh 28.94 in980.0 mb 0.00 in0.0 mm 0.00 in0.0 mm 0.00 in0.0 mm
03:46 AM 41.7°F5.4°C 24.5°F-4.2°C 50% 3.4 mph NNW5.5 kmh NNW 8.7 mph14.0 kmh 28.94 in980.0 mb 0.00 in0.0 mm 0.00 in0.0 mm 0.00 in0.0 mm
03:44 AM 41.7°F5.4°C 24.5°F-4.2°C 50% 2.8 mph NNW4.5 kmh NNW 8.7 mph14.0 kmh 28.94 in980.0 mb 0.00 in0.0 mm 0.00 in0.0 mm 0.00 in0.0 mm
03:43 AM 41.7°F5.4°C 24.5°F-4.2°C 50% 2.8 mph NW4.5 kmh NW 8.7 mph14.0 kmh 28.94 in980.0 mb 0.00 in0.0 mm 0.00 in0.0 mm 0.00 in0.0 mm
03:41 AM 41.7°F5.4°C 23.9°F-4.5°C 49% 3.6 mph NW5.8 kmh NW 8.7 mph14.0 kmh 28.94 in980.0 mb 0.00 in0.0 mm 0.00 in0.0 mm 0.00 in0.0 mm
03:39 AM 41.5°F5.3°C 23.7°F-4.6°C 49% 3.7 mph NW6.0 kmh NW 8.7 mph14.0 kmh 28.94 in980.0 mb 0.00 in0.0 mm 0.00 in0.0 mm 0.00 in0.0 mm
03:38 AM 41.5°F5.3°C 23.7°F-4.6°C 49% 3.6 mph NW5.8 kmh NW 8.7 mph14.0 kmh 28.94 in980.0 mb 0.00 in0.0 mm 0.00 in0.0 mm 0.00 in0.0 mm
03:36 AM 41.5°F5.3°C 23.7°F-4.6°C 49% 4.8 mph NW7.7 kmh NW 8.7 mph14.0 kmh 28.94 in980.0 mb 0.00 in0.0 mm 0.00 in0.0 mm 0.00 in0.0 mm
03:34 AM 41.5°F5.3°C 23.7°F-4.6°C 49% 4.9 mph NW7.9 kmh NW 8.0 mph12.9 kmh 28.94 in980.0 mb 0.00 in0.0 mm 0.00 in0.0 mm 0.00 in0.0 mm
03:33 AM 41.5°F5.3°C 23.7°F-4.6°C 49% 4.1 mph NW6.6 kmh NW 8.0 mph12.9 kmh 28.94 in980.0 mb 0.00 in0.0 mm 0.00 in0.0 mm 0.00 in0.0 mm
03:31 AM 41.5°F5.3°C 23.7°F-4.6°C 49% 3.9 mph NW6.3 kmh NW 8.0 mph12.9 kmh 28.94 in980.0 mb 0.00 in0.0 mm 0.00 in0.0 mm 0.00 in0.0 mm
03:29 AM 41.5°F5.3°C 23.7°F-4.6°C 49% 4.1 mph NW6.6 kmh NW 6.7 mph10.8 kmh 28.94 in980.0 mb 0.00 in0.0 mm 0.00 in0.0 mm 0.00 in0.0 mm
03:28 AM 41.5°F5.3°C 23.7°F-4.6°C 49% 4.2 mph NW6.8 kmh NW 6.7 mph10.8 kmh 28.94 in980.0 mb 0.00 in0.0 mm 0.00 in0.0 mm 0.00 in0.0 mm
03:26 AM 41.5°F5.3°C 23.7°F-4.6°C 49% 4.2 mph NW6.8 kmh NW 6.7 mph10.8 kmh 28.94 in980.0 mb 0.00 in0.0 mm 0.00 in0.0 mm 0.00 in0.0 mm
03:24 AM 41.5°F5.3°C 23.7°F-4.6°C 49% 3.8 mph NW6.1 kmh NW 6.7 mph10.8 kmh 28.94 in980.0 mb 0.00 in0.0 mm 0.00 in0.0 mm 0.00 in0.0 mm
03:23 AM 41.5°F5.3°C 23.7°F-4.6°C 49% 2.9 mph NW4.7 kmh NW 5.5 mph8.9 kmh 28.94 in980.0 mb 0.00 in0.0 mm 0.00 in0.0 mm 0.00 in0.0 mm
03:21 AM 41.5°F5.3°C 23.7°F-4.6°C 49% 3.5 mph NW5.6 kmh NW 5.5 mph8.9 kmh 28.94 in980.0 mb 0.00 in0.0 mm 0.00 in0.0 mm 0.00 in0.0 mm
03:19 AM 41.5°F5.3°C 23.7°F-4.6°C 49% 3.0 mph NW4.8 kmh NW 6.7 mph10.8 kmh 28.94 in980.0 mb 0.00 in0.0 mm 0.00 in0.0 mm 0.00 in0.0 mm
03:18 AM 41.5°F5.3°C 23.7°F-4.6°C 49% 3.3 mph NW5.3 kmh NW 6.7 mph10.8 kmh 28.94 in980.0 mb 0.00 in0.0 mm 0.00 in0.0 mm 0.00 in0.0 mm
03:16 AM 41.4°F5.2°C 23.7°F-4.6°C 49% 3.8 mph NW6.1 kmh NW 8.7 mph14.0 kmh 28.94 in980.0 mb 0.00 in0.0 mm 0.00 in0.0 mm 0.00 in0.0 mm
03:14 AM 41.4°F5.2°C 23.7°F-4.6°C 49% 3.6 mph NW5.8 kmh NW 8.7 mph14.0 kmh 28.94 in980.0 mb 0.00 in0.0 mm 0.00 in0.0 mm 0.00 in0.0 mm
03:13 AM 41.4°F5.2°C 23.7°F-4.6°C 49% 4.0 mph NW6.4 kmh NW 8.7 mph14.0 kmh 28.94 in980.0 mb 0.00 in0.0 mm 0.00 in0.0 mm 0.00 in0.0 mm
03:11 AM 41.4°F5.2°C 23.7°F-4.6°C 49% 4.2 mph NW6.8 kmh NW 8.7 mph14.0 kmh 28.94 in980.0 mb 0.00 in0.0 mm 0.00 in0.0 mm 0.00 in0.0 mm
03:09 AM 41.2°F5.1°C 23.5°F-4.7°C 49% 4.0 mph NW6.4 kmh NW 8.7 mph14.0 kmh 28.94 in980.0 mb 0.00 in0.0 mm 0.00 in0.0 mm 0.00 in0.0 mm
03:07 AM 41.2°F5.1°C 23.5°F-4.7°C 49% 4.4 mph NW7.1 kmh NW 8.7 mph14.0 kmh 28.94 in980.0 mb 0.00 in0.0 mm 0.00 in0.0 mm 0.00 in0.0 mm
03:06 AM 41.2°F5.1°C 23.5°F-4.7°C 49% 4.2 mph NW6.8 kmh NW 8.7 mph14.0 kmh 28.94 in980.0 mb 0.00 in0.0 mm 0.00 in0.0 mm 0.00 in0.0 mm
03:04 AM 41.2°F5.1°C 22.9°F-5.1°C 48% 4.1 mph NW6.6 kmh NW 8.7 mph14.0 kmh 28.94 in980.0 mb 0.00 in0.0 mm 0.00 in0.0 mm 0.00 in0.0 mm
03:02 AM 41.2°F5.1°C 22.9°F-5.1°C 48% 3.8 mph NW6.1 kmh NW 8.7 mph14.0 kmh 28.94 in980.0 mb 0.00 in0.0 mm 0.00 in0.0 mm 0.00 in0.0 mm
03:01 AM 41.2°F5.1°C 22.9°F-5.1°C 48% 4.6 mph NW7.4 kmh NW 8.7 mph14.0 kmh 28.94 in980.0 mb 0.00 in0.0 mm 0.00 in0.0 mm 0.00 in0.0 mm
02:59 AM 41.2°F5.1°C 22.9°F-5.1°C 48% 5.4 mph WNW8.7 kmh WNW 8.7 mph14.0 kmh 28.94 in980.0 mb 0.00 in0.0 mm 0.00 in0.0 mm 0.00 in0.0 mm
02:57 AM 41.0°F5.0°C 22.7°F-5.2°C 48% 4.0 mph NW6.4 kmh NW 8.7 mph14.0 kmh 28.94 in980.0 mb 0.00 in0.0 mm 0.00 in0.0 mm 0.00 in0.0 mm
02:56 AM 41.0°F5.0°C 22.7°F-5.2°C 48% 4.9 mph NW7.9 kmh NW 8.7 mph14.0 kmh 28.94 in980.0 mb 0.00 in0.0 mm 0.00 in0.0 mm 0.00 in0.0 mm
02:54 AM 41.0°F5.0°C 22.7°F-5.2°C 48% 4.5 mph NW7.2 kmh NW 11.1 mph17.9 kmh 28.94 in980.0 mb 0.00 in0.0 mm 0.00 in0.0 mm 0.00 in0.0 mm
02:52 AM 41.0°F5.0°C 22.7°F-5.2°C 48% 5.1 mph NW8.2 kmh NW 11.1 mph17.9 kmh 28.94 in980.0 mb 0.00 in0.0 mm 0.00 in0.0 mm 0.00 in0.0 mm
02:51 AM 41.0°F5.0°C 22.7°F-5.2°C 48% 4.8 mph NW7.7 kmh NW 11.4 mph18.3 kmh 28.94 in980.0 mb 0.00 in0.0 mm 0.00 in0.0 mm 0.00 in0.0 mm
02:49 AM 41.0°F5.0°C 22.7°F-5.2°C 48% 5.1 mph NW8.2 kmh NW 11.4 mph18.3 kmh 28.94 in980.0 mb 0.00 in0.0 mm 0.00 in0.0 mm 0.00 in0.0 mm
02:47 AM 40.8°F4.9°C 22.6°F-5.2°C 48% 4.4 mph NW7.1 kmh NW 11.4 mph18.3 kmh 28.94 in980.0 mb 0.00 in0.0 mm 0.00 in0.0 mm 0.00 in0.0 mm
02:46 AM 40.8°F4.9°C 22.6°F-5.2°C 48% 4.7 mph NW7.6 kmh NW 11.4 mph18.3 kmh 28.94 in980.0 mb 0.00 in0.0 mm 0.00 in0.0 mm 0.00 in0.0 mm
02:44 AM 40.8°F4.9°C 22.6°F-5.2°C 48% 6.6 mph WNW10.6 kmh WNW 11.4 mph18.3 kmh 28.94 in980.0 mb 0.00 in0.0 mm 0.00 in0.0 mm 0.00 in0.0 mm
02:42 AM 40.8°F4.9°C 22.6°F-5.2°C 48% 8.0 mph WNW12.9 kmh WNW 11.4 mph18.3 kmh 28.94 in980.0 mb 0.00 in0.0 mm 0.00 in0.0 mm 0.00 in0.0 mm
02:41 AM 40.6°F4.8°C 22.4°F-5.3°C 48% 7.1 mph WNW11.4 kmh WNW 11.1 mph17.9 kmh 28.94 in980.0 mb 0.00 in0.0 mm 0.00 in0.0 mm 0.00 in0.0 mm
02:39 AM 40.6°F4.8°C 22.4°F-5.3°C 48% 6.4 mph WNW10.3 kmh WNW 11.1 mph17.9 kmh 28.94 in980.0 mb 0.00 in0.0 mm 0.00 in0.0 mm 0.00 in0.0 mm
02:37 AM 40.5°F4.7°C 22.3°F-5.4°C 48% 6.5 mph WNW10.5 kmh WNW 11.1 mph17.9 kmh 28.94 in980.0 mb 0.00 in0.0 mm 0.00 in0.0 mm 0.00 in0.0 mm
02:36 AM 40.5°F4.7°C 22.3°F-5.4°C 48% 7.3 mph WNW11.7 kmh WNW 11.1 mph17.9 kmh 28.94 in980.0 mb 0.00 in0.0 mm 0.00 in0.0 mm 0.00 in0.0 mm
02:34 AM 40.5°F4.7°C 22.3°F-5.4°C 48% 7.1 mph WNW11.4 kmh WNW 11.1 mph17.9 kmh 28.97 in981.0 mb 0.00 in0.0 mm 0.00 in0.0 mm 0.00 in0.0 mm
02:32 AM 40.3°F4.6°C 22.1°F-5.5°C 48% 6.3 mph WNW10.1 kmh WNW 10.4 mph16.7 kmh 28.97 in981.0 mb 0.00 in0.0 mm 0.00 in0.0 mm 0.00 in0.0 mm
02:31 AM 40.3°F4.6°C 22.1°F-5.5°C 48% 6.8 mph WNW10.9 kmh WNW 11.1 mph17.9 kmh 28.97 in981.0 mb 0.00 in0.0 mm 0.00 in0.0 mm 0.00 in0.0 mm
02:29 AM 40.3°F4.6°C 22.1°F-5.5°C 48% 7.0 mph WNW11.3 kmh WNW 11.1 mph17.9 kmh 28.97 in981.0 mb 0.00 in0.0 mm 0.00 in0.0 mm 0.00 in0.0 mm
02:27 AM 40.1°F4.5°C 21.9°F-5.6°C 48% 7.0 mph WNW11.3 kmh WNW 11.1 mph17.9 kmh 28.97 in981.0 mb 0.00 in0.0 mm 0.00 in0.0 mm 0.00 in0.0 mm
02:25 AM 40.1°F4.5°C 22.0°F-5.6°C 48% 6.3 mph WNW10.1 kmh WNW 11.1 mph17.9 kmh 28.97 in981.0 mb 0.00 in0.0 mm 0.00 in0.0 mm 0.00 in0.0 mm
02:24 AM 40.1°F4.5°C 22.0°F-5.6°C 48% 6.6 mph WNW10.6 kmh WNW 11.1 mph17.9 kmh 28.97 in981.0 mb 0.00 in0.0 mm 0.00 in0.0 mm 0.00 in0.0 mm
02:22 AM 39.9°F4.4°C 21.2°F-6.0°C 47% 6.0 mph W9.7 kmh W 11.1 mph17.9 kmh 28.97 in981.0 mb 0.00 in0.0 mm 0.00 in0.0 mm 0.00 in0.0 mm
02:21 AM 39.9°F4.4°C 21.2°F-6.0°C 47% 5.3 mph WNW8.5 kmh WNW 8.7 mph14.0 kmh 28.97 in981.0 mb 0.00 in0.0 mm 0.00 in0.0 mm 0.00 in0.0 mm
02:19 AM 39.7°F4.3°C 21.0°F-6.1°C 47% 5.1 mph WNW8.2 kmh WNW 8.7 mph14.0 kmh 28.97 in981.0 mb 0.00 in0.0 mm 0.00 in0.0 mm 0.00 in0.0 mm
02:17 AM 39.7°F4.3°C 21.0°F-6.1°C 47% 5.7 mph WNW9.2 kmh WNW 8.7 mph14.0 kmh 28.97 in981.0 mb 0.00 in0.0 mm 0.00 in0.0 mm 0.00 in0.0 mm
02:15 AM 39.7°F4.3°C 21.0°F-6.1°C 47% 5.4 mph WNW8.7 kmh WNW 8.7 mph14.0 kmh 28.97 in981.0 mb 0.00 in0.0 mm 0.00 in0.0 mm 0.00 in0.0 mm
02:14 AM 39.6°F4.2°C 20.9°F-6.2°C 47% 4.8 mph WNW7.7 kmh WNW 8.7 mph14.0 kmh 28.97 in981.0 mb 0.00 in0.0 mm 0.00 in0.0 mm 0.00 in0.0 mm
02:12 AM 39.6°F4.2°C 20.9°F-6.2°C 47% 4.3 mph WNW6.9 kmh WNW 7.4 mph11.9 kmh 28.97 in981.0 mb 0.00 in0.0 mm 0.00 in0.0 mm 0.00 in0.0 mm
02:11 AM 39.6°F4.2°C 20.9°F-6.2°C 47% 4.8 mph WNW7.7 kmh WNW 7.4 mph11.9 kmh 28.97 in981.0 mb 0.00 in0.0 mm 0.00 in0.0 mm 0.00 in0.0 mm
02:09 AM 39.4°F4.1°C 20.7°F-6.3°C 47% 4.5 mph W7.2 kmh W 8.0 mph12.9 kmh 28.97 in981.0 mb 0.00 in0.0 mm 0.00 in0.0 mm 0.00 in0.0 mm
02:07 AM 39.4°F4.1°C 20.7°F-6.3°C 47% 4.5 mph W7.2 kmh W 8.0 mph12.9 kmh 28.97 in981.0 mb 0.00 in0.0 mm 0.00 in0.0 mm 0.00 in0.0 mm
02:05 AM 39.4°F4.1°C 20.7°F-6.3°C 47% 4.7 mph SW7.6 kmh SW 8.0 mph12.9 kmh 28.97 in981.0 mb 0.00 in0.0 mm 0.00 in0.0 mm 0.00 in0.0 mm
02:04 AM 39.4°F4.1°C 20.7°F-6.3°C 47% 4.8 mph W7.7 kmh W 8.0 mph12.9 kmh 28.97 in981.0 mb 0.00 in0.0 mm 0.00 in0.0 mm 0.00 in0.0 mm
02:02 AM 39.2°F4.0°C 20.6°F-6.3°C 47% 4.6 mph W7.4 kmh W 8.0 mph12.9 kmh 28.97 in981.0 mb 0.00 in0.0 mm 0.00 in0.0 mm 0.00 in0.0 mm
02:00 AM 39.2°F4.0°C 20.6°F-6.3°C 47% 5.1 mph W8.2 kmh W 8.0 mph12.9 kmh 28.97 in981.0 mb 0.00 in0.0 mm 0.00 in0.0 mm 0.00 in0.0 mm
01:59 AM 39.2°F4.0°C 20.6°F-6.3°C 47% 5.6 mph W9.0 kmh W 8.0 mph12.9 kmh 28.97 in981.0 mb 0.00 in0.0 mm 0.00 in0.0 mm 0.00 in0.0 mm
01:57 AM 39.2°F4.0°C 20.6°F-6.3°C 47% 5.1 mph WNW8.2 kmh WNW 8.0 mph12.9 kmh 28.97 in981.0 mb 0.00 in0.0 mm 0.00 in0.0 mm 0.00 in0.0 mm
01:55 AM 39.2°F4.0°C 20.6°F-6.3°C 47% 5.3 mph WNW8.5 kmh WNW 8.0 mph12.9 kmh 28.97 in981.0 mb 0.00 in0.0 mm 0.00 in0.0 mm 0.00 in0.0 mm
01:54 AM 39.2°F4.0°C 20.6°F-6.3°C 47% 5.4 mph WNW8.7 kmh WNW 8.0 mph12.9 kmh 28.97 in981.0 mb 0.00 in0.0 mm 0.00 in0.0 mm 0.00 in0.0 mm
01:52 AM 39.0°F3.9°C 20.4°F-6.4°C 47% 4.5 mph NW7.2 kmh NW 7.4 mph11.9 kmh 28.97 in981.0 mb 0.00 in0.0 mm 0.00 in0.0 mm 0.00 in0.0 mm
01:50 AM 39.0°F3.9°C 20.4°F-6.4°C 47% 4.7 mph NW7.6 kmh NW 7.4 mph11.9 kmh 28.97 in981.0 mb 0.00 in0.0 mm 0.00 in0.0 mm 0.00 in0.0 mm
01:49 AM 38.8°F3.8°C 20.2°F-6.6°C 47% 4.9 mph NW7.9 kmh NW 7.4 mph11.9 kmh 28.97 in981.0 mb 0.00 in0.0 mm 0.00 in0.0 mm 0.00 in0.0 mm
01:47 AM 38.8°F3.8°C 20.2°F-6.6°C 47% 5.7 mph NW9.2 kmh NW 7.4 mph11.9 kmh 28.97 in981.0 mb 0.00 in0.0 mm 0.00 in0.0 mm 0.00 in0.0 mm
01:45 AM 38.8°F3.8°C 20.2°F-6.6°C 47% 4.8 mph NW7.7 kmh NW 7.4 mph11.9 kmh 28.97 in981.0 mb 0.00 in0.0 mm 0.00 in0.0 mm 0.00 in0.0 mm
01:44 AM 38.7°F3.7°C 20.1°F-6.6°C 47% 4.7 mph NW7.6 kmh NW 6.7 mph10.8 kmh 28.97 in981.0 mb 0.00 in0.0 mm 0.00 in0.0 mm 0.00 in0.0 mm
01:42 AM 38.7°F3.7°C 20.1°F-6.6°C 47% 4.0 mph NW6.4 kmh NW 7.4 mph11.9 kmh 28.97 in981.0 mb 0.00 in0.0 mm 0.00 in0.0 mm 0.00 in0.0 mm
01:40 AM 38.7°F3.7°C 20.1°F-6.6°C 47% 4.1 mph NW6.6 kmh NW 7.4 mph11.9 kmh 28.97 in981.0 mb 0.00 in0.0 mm 0.00 in0.0 mm 0.00 in0.0 mm
01:39 AM 38.7°F3.7°C 20.1°F-6.6°C 47% 4.3 mph NW6.9 kmh NW 7.4 mph11.9 kmh 28.97 in981.0 mb 0.00 in0.0 mm 0.00 in0.0 mm 0.00 in0.0 mm
01:37 AM 38.7°F3.7°C 20.1°F-6.6°C 47% 4.8 mph NW7.7 kmh NW 7.4 mph11.9 kmh 28.97 in981.0 mb 0.00 in0.0 mm 0.00 in0.0 mm 0.00 in0.0 mm
01:35 AM 38.5°F3.6°C 19.9°F-6.7°C 47% 5.0 mph NW8.0 kmh NW 7.4 mph11.9 kmh 28.97 in981.0 mb 0.00 in0.0 mm 0.00 in0.0 mm 0.00 in0.0 mm
01:34 AM 38.5°F3.6°C 19.9°F-6.7°C 47% 5.3 mph NW8.5 kmh NW 7.4 mph11.9 kmh 28.97 in981.0 mb 0.00 in0.0 mm 0.00 in0.0 mm 0.00 in0.0 mm
01:32 AM 38.5°F3.6°C 19.9°F-6.7°C 47% 4.9 mph NNW7.9 kmh NNW 6.7 mph10.8 kmh 28.97 in981.0 mb 0.00 in0.0 mm 0.00 in0.0 mm 0.00 in0.0 mm
01:30 AM 38.5°F3.6°C 20.0°F-6.7°C 47% 4.0 mph NNW6.4 kmh NNW 6.7 mph10.8 kmh 28.97 in981.0 mb 0.00 in0.0 mm 0.00 in0.0 mm 0.00 in0.0 mm
01:28 AM 38.5°F3.6°C 20.0°F-6.7°C 47% 4.7 mph NNW7.6 kmh NNW 6.7 mph10.8 kmh 28.97 in981.0 mb 0.00 in0.0 mm 0.00 in0.0 mm 0.00 in0.0 mm
01:25 AM 38.3°F3.5°C 19.8°F-6.8°C 47% 4.7 mph NNW7.6 kmh NNW 6.7 mph10.8 kmh 28.97 in981.0 mb 0.00 in0.0 mm 0.00 in0.0 mm 0.00 in0.0 mm
01:23 AM 38.1°F3.4°C 19.6°F-6.9°C 47% 4.4 mph NNW7.1 kmh NNW 6.7 mph10.8 kmh 28.97 in981.0 mb 0.00 in0.0 mm 0.00 in0.0 mm 0.00 in0.0 mm
01:22 AM 38.1°F3.4°C 19.6°F-6.9°C 47% 3.9 mph NNW6.3 kmh NNW 6.7 mph10.8 kmh 28.97 in981.0 mb 0.00 in0.0 mm 0.00 in0.0 mm 0.00 in0.0 mm
01:20 AM 38.1°F3.4°C 19.6°F-6.9°C 47% 3.8 mph NNW6.1 kmh NNW 6.7 mph10.8 kmh 28.97 in981.0 mb 0.00 in0.0 mm 0.00 in0.0 mm 0.00 in0.0 mm
01:18 AM 37.9°F3.3°C 19.4°F-7.0°C 47% 3.4 mph NNW5.5 kmh NNW 5.5 mph8.9 kmh 28.97 in981.0 mb 0.00 in0.0 mm 0.00 in0.0 mm 0.00 in0.0 mm
01:17 AM 37.9°F3.3°C 19.4°F-7.0°C 47% 3.8 mph NNW6.1 kmh NNW 5.5 mph8.9 kmh 28.97 in981.0 mb 0.00 in0.0 mm 0.00 in0.0 mm 0.00 in0.0 mm
01:15 AM 37.9°F3.3°C 18.8°F-7.3°C 46% 2.9 mph NNW4.7 kmh NNW 5.5 mph8.9 kmh 28.97 in981.0 mb 0.00 in0.0 mm 0.00 in0.0 mm 0.00 in0.0 mm
01:13 AM 37.8°F3.2°C 18.7°F-7.4°C 46% Calm Calm 5.5 mph8.9 kmh 28.97 in981.0 mb 0.00 in0.0 mm 0.00 in0.0 mm 0.00 in0.0 mm
01:11 AM 37.8°F3.2°C 18.7°F-7.4°C 46% Calm Calm 5.5 mph8.9 kmh 28.97 in981.0 mb 0.00 in0.0 mm 0.00 in0.0 mm 0.00 in0.0 mm
01:10 AM 37.6°F3.1°C 18.5°F-7.5°C 46% Calm Calm 5.5 mph8.9 kmh 28.97 in981.0 mb 0.00 in0.0 mm 0.00 in0.0 mm 0.00 in0.0 mm
01:08 AM 37.6°F3.1°C 18.5°F-7.5°C 46% Calm Calm 6.2 mph10.0 kmh 28.97 in981.0 mb 0.00 in0.0 mm 0.00 in0.0 mm 0.00 in0.0 mm
01:07 AM 37.6°F3.1°C 18.5°F-7.5°C 46% 3.4 mph NNW5.5 kmh NNW 7.4 mph11.9 kmh 28.97 in981.0 mb 0.00 in0.0 mm 0.00 in0.0 mm 0.00 in0.0 mm
01:04 AM 37.4°F3.0°C 18.4°F-7.6°C 46% 3.4 mph NNW5.5 kmh NNW 7.4 mph11.9 kmh 28.97 in981.0 mb 0.00 in0.0 mm 0.00 in0.0 mm 0.00 in0.0 mm
01:03 AM 37.4°F3.0°C 18.4°F-7.6°C 46% 3.9 mph NNW6.3 kmh NNW 7.4 mph11.9 kmh 28.97 in981.0 mb 0.00 in0.0 mm 0.00 in0.0 mm 0.00 in0.0 mm
01:01 AM 37.2°F2.9°C 18.2°F-7.7°C 46% 4.5 mph NNW7.2 kmh NNW 7.4 mph11.9 kmh 28.97 in981.0 mb 0.00 in0.0 mm 0.00 in0.0 mm 0.00 in0.0 mm
12:59 AM 37.2°F2.9°C 18.2°F-7.7°C 46% 4.8 mph NNW7.7 kmh NNW 8.0 mph12.9 kmh 28.97 in981.0 mb 0.00 in0.0 mm 0.00 in0.0 mm 0.00 in0.0 mm
12:58 AM 37.0°F2.8°C 17.4°F-8.1°C 45% 4.6 mph NNW7.4 kmh NNW 8.0 mph12.9 kmh 28.97 in981.0 mb 0.00 in0.0 mm 0.00 in0.0 mm 0.00 in0.0 mm
12:56 AM 37.0°F2.8°C 17.4°F-8.1°C 45% 3.8 mph NNW6.1 kmh NNW 8.0 mph12.9 kmh 28.97 in981.0 mb 0.00 in0.0 mm 0.00 in0.0 mm 0.00 in0.0 mm
12:54 AM 36.9°F2.7°C 17.3°F-8.2°C 45% 3.8 mph NNW6.1 kmh NNW 8.0 mph12.9 kmh 28.97 in981.0 mb 0.00 in0.0 mm 0.00 in0.0 mm 0.00 in0.0 mm
12:53 AM 36.9°F2.7°C 17.3°F-8.2°C 45% 4.4 mph NNW7.1 kmh NNW 8.0 mph12.9 kmh 28.97 in981.0 mb 0.00 in0.0 mm 0.00 in0.0 mm 0.00 in0.0 mm
12:50 AM 36.7°F2.6°C 17.1°F-8.3°C 45% 4.7 mph NNW7.6 kmh NNW 8.0 mph12.9 kmh 28.97 in981.0 mb 0.00 in0.0 mm 0.00 in0.0 mm 0.00 in0.0 mm
12:49 AM 36.3°F2.4°C 16.7°F-8.5°C 45% 3.4 mph NNW5.5 kmh NNW 6.7 mph10.8 kmh 28.97 in981.0 mb 0.00 in0.0 mm 0.00 in0.0 mm 0.00 in0.0 mm
12:47 AM 36.3°F2.4°C 16.7°F-8.5°C 45% 4.1 mph NNW6.6 kmh NNW 6.7 mph10.8 kmh 28.97 in981.0 mb 0.00 in0.0 mm 0.00 in0.0 mm 0.00 in0.0 mm
12:45 AM 36.1°F2.3°C 15.9°F-8.9°C 44% 4.0 mph NNW6.4 kmh NNW 7.4 mph11.9 kmh 28.97 in981.0 mb 0.00 in0.0 mm 0.00 in0.0 mm 0.00 in0.0 mm
12:44 AM 36.0°F2.2°C 15.8°F-9.0°C 44% 3.5 mph NNW5.6 kmh NNW 7.4 mph11.9 kmh 28.97 in981.0 mb 0.00 in0.0 mm 0.00 in0.0 mm 0.00 in0.0 mm
12:42 AM 35.8°F2.1°C 15.7°F-9.1°C 44% 4.0 mph NNW6.4 kmh NNW 7.4 mph11.9 kmh 28.97 in981.0 mb 0.00 in0.0 mm 0.00 in0.0 mm 0.00 in0.0 mm
12:40 AM 35.8°F2.1°C 15.7°F-9.1°C 44% 4.7 mph NNW7.6 kmh NNW 7.4 mph11.9 kmh 28.97 in981.0 mb 0.00 in0.0 mm 0.00 in0.0 mm 0.00 in0.0 mm
12:38 AM 35.6°F2.0°C 14.8°F-9.6°C 43% 5.2 mph NNW8.4 kmh NNW 7.4 mph11.9 kmh 28.97 in981.0 mb 0.00 in0.0 mm 0.00 in0.0 mm 0.00 in0.0 mm
12:37 AM 35.6°F2.0°C 14.8°F-9.6°C 43% 5.5 mph NNW8.9 kmh NNW 7.4 mph11.9 kmh 28.97 in981.0 mb 0.00 in0.0 mm 0.00 in0.0 mm 0.00 in0.0 mm
12:35 AM 35.6°F2.0°C 14.8°F-9.6°C 43% 5.5 mph NNW8.9 kmh NNW 7.4 mph11.9 kmh 28.97 in981.0 mb 0.00 in0.0 mm 0.00 in0.0 mm 0.00 in0.0 mm
12:33 AM 35.4°F1.9°C 14.7°F-9.6°C 43% 4.0 mph NNW6.4 kmh NNW 7.4 mph11.9 kmh 28.97 in981.0 mb 0.00 in0.0 mm 0.00 in0.0 mm 0.00 in0.0 mm
12:32 AM 35.4°F1.9°C 14.7°F-9.6°C 43% 4.5 mph NNW7.2 kmh NNW 7.4 mph11.9 kmh 28.97 in981.0 mb 0.00 in0.0 mm 0.00 in0.0 mm 0.00 in0.0 mm
12:30 AM 35.4°F1.9°C 14.7°F-9.6°C 43% 5.7 mph NNW9.2 kmh NNW 7.4 mph11.9 kmh 28.97 in981.0 mb 0.00 in0.0 mm 0.00 in0.0 mm 0.00 in0.0 mm
12:28 AM 35.4°F1.9°C 14.7°F-9.6°C 43% 4.1 mph N6.6 kmh N 7.4 mph11.9 kmh 28.97 in981.0 mb 0.00 in0.0 mm 0.00 in0.0 mm 0.00 in0.0 mm
12:26 AM 35.4°F1.9°C 14.7°F-9.6°C 43% 3.2 mph NNE5.1 kmh NNE 5.5 mph8.9 kmh 28.97 in981.0 mb 0.00 in0.0 mm 0.00 in0.0 mm 0.00 in0.0 mm
12:25 AM 35.4°F1.9°C 14.7°F-9.6°C 43% 4.5 mph NNE7.2 kmh NNE 5.5 mph8.9 kmh 28.97 in981.0 mb 0.00 in0.0 mm 0.00 in0.0 mm 0.00 in0.0 mm
12:23 AM 35.6°F2.0°C 14.2°F-9.9°C 41% 4.3 mph NNE6.9 kmh NNE 5.5 mph8.9 kmh 28.97 in981.0 mb 0.00 in0.0 mm 0.00 in0.0 mm 0.00 in0.0 mm
12:21 AM 35.6°F2.0°C 14.2°F-9.9°C 41% 3.4 mph NNE5.5 kmh NNE 6.7 mph10.8 kmh 28.97 in981.0 mb 0.00 in0.0 mm 0.00 in0.0 mm 0.00 in0.0 mm
12:19 AM 35.6°F2.0°C 14.2°F-9.9°C 41% 3.6 mph NNE5.8 kmh NNE 6.7 mph10.8 kmh 28.97 in981.0 mb 0.00 in0.0 mm 0.00 in0.0 mm 0.00 in0.0 mm
12:17 AM 35.6°F2.0°C 14.2°F-9.9°C 41% 3.5 mph NNE5.6 kmh NNE 6.7 mph10.8 kmh 28.97 in981.0 mb 0.00 in0.0 mm 0.00 in0.0 mm 0.00 in0.0 mm
12:16 AM 35.6°F2.0°C 14.2°F-9.9°C 41% 3.5 mph NNE5.6 kmh NNE 6.7 mph10.8 kmh 28.97 in981.0 mb 0.00 in0.0 mm 0.00 in0.0 mm 0.00 in0.0 mm
12:14 AM 35.6°F2.0°C 14.2°F-9.9°C 41% 4.1 mph NNE6.6 kmh NNE 6.7 mph10.8 kmh 28.97 in981.0 mb 0.00 in0.0 mm 0.00 in0.0 mm 0.00 in0.0 mm
12:12 AM 35.8°F2.1°C 14.4°F-9.8°C 41% 4.5 mph NNE7.2 kmh NNE 6.7 mph10.8 kmh 28.97 in981.0 mb 0.00 in0.0 mm 0.00 in0.0 mm 0.00 in0.0 mm
12:11 AM 35.8°F2.1°C 14.4°F-9.8°C 41% Calm Calm 4.9 mph7.9 kmh 28.97 in981.0 mb 0.00 in0.0 mm 0.00 in0.0 mm 0.00 in0.0 mm
12:09 AM 36.0°F2.2°C 14.6°F-9.7°C 41% Calm Calm -- 28.97 in981.0 mb 0.00 in0.0 mm 0.00 in0.0 mm 0.00 in0.0 mm
12:07 AM 36.1°F2.3°C 14.6°F-9.7°C 41% Calm Calm -- 28.97 in981.0 mb 0.00 in0.0 mm 0.00 in0.0 mm 0.00 in0.0 mm
12:06 AM 36.1°F2.3°C 14.6°F-9.7°C 41% Calm Calm -- 28.97 in981.0 mb 0.00 in0.0 mm 0.00 in0.0 mm 0.00 in0.0 mm
12:04 AM 36.3°F2.4°C 14.8°F-9.6°C 41% Calm Calm -- 28.97 in981.0 mb 0.00 in0.0 mm 0.00 in0.0 mm 0.00 in0.0 mm
12:02 AM 36.3°F2.4°C 14.8°F-9.6°C 41% Calm Calm -- 28.97 in981.0 mb 0.00 in0.0 mm 0.00 in0.0 mm 0.00 in0.0 mm
12:00 AM 36.3°F2.4°C 14.8°F-9.6°C 41% Calm Calm -- 28.97 in981.0 mb 0.00 in0.0 mm 0.00 in0.0 mm 0.00 in0.0 mm